Time;durP1;ratioP1;P1;durP2;ratioP2;P2;SDS_P1;SDS_P2;PMS_P1;PMS_P2;Temp;Humidity;BMP_temperature;BMP_pressure;BME280_temperature;BME280_humidity;BME280_pressure;Samples;Min_cycle;Max_cycle;Signal;HPM_P1;HPM_P2
2022/01/09 00:01:23;;;;;;;1.45;1.35;;;;;;;;;;4975587;28;20464;-49
2022/01/09 00:03:49;;;;;;;1.55;1.35;;;;;;;;;;4978094;28;20451;-51
2022/01/09 00:06:15;;;;;;;1.20;1.10;;;;;;;;;;4977859;28;20189;-51
2022/01/09 00:08:41;;;;;;;1.73;1.63;;;;;;;;;;4978224;28;20631;-50
2022/01/09 00:11:07;;;;;;;1.55;1.45;;;;;;;;;;4978067;28;20257;-50
2022/01/09 00:13:33;;;;;;;1.37;1.27;;;;;;;;;;4977837;28;20204;-50
2022/01/09 00:15:59;;;;;;;1.30;1.30;;;;;;;;;;4978904;28;20533;-50
2022/01/09 00:18:25;;;;;;;1.30;1.20;;;;;;;;;;4977813;28;20489;-49
2022/01/09 00:20:51;;;;;;;1.60;1.50;;;;;;;;;;4976838;28;20452;-50
2022/01/09 00:23:17;;;;;;;1.30;1.10;;;;;;;;;;4976668;28;20412;-50
2022/01/09 00:25:43;;;;;;;1.52;1.42;;;;;;;;;;4974060;28;20195;-50
2022/01/09 00:28:09;;;;;;;1.30;1.20;;;;;;;;;;4976223;28;20173;-52
2022/01/09 00:30:35;;;;;;;1.50;1.40;;;;;;;;;;4975939;28;20980;-51
2022/01/09 00:33:01;;;;;;;1.38;1.27;;;;;;;;;;4975759;28;20666;-51
2022/01/09 00:35:27;;;;;;;1.17;1.10;;;;;;;;;;4975948;28;20184;-50
2022/01/09 00:37:53;;;;;;;1.10;1.10;;;;;;;;;;4975773;28;20441;-50
2022/01/09 00:40:20;;;;;;;1.20;1.07;;;;;;;;;;4975656;28;20303;-50
2022/01/09 00:42:46;;;;;;;1.88;1.70;;;;;;;;;;4975926;28;20507;-51
2022/01/09 00:45:12;;;;;;;1.40;1.30;;;;;;;;;;4976161;28;20597;-50
2022/01/09 00:47:38;;;;;;;1.30;1.17;;;;;;;;;;4976246;28;20937;-51
2022/01/09 00:50:04;;;;;;;1.33;1.20;;;;;;;;;;4976081;28;20182;-51
2022/01/09 00:52:30;;;;;;;1.00;1.00;;;;;;;;;;4975646;28;20576;-50
2022/01/09 00:54:56;;;;;;;1.50;1.40;;;;;;;;;;4975896;28;20235;-50
2022/01/09 00:57:23;;;;;;;1.50;1.40;;;;;;;;;;4975963;28;20417;-51
2022/01/09 00:59:49;;;;;;;2.00;1.55;;;;;;;;;;4976091;28;20704;-51
2022/01/09 01:02:15;;;;;;;1.42;1.33;;;;;;;;;;4975567;28;20194;-51
2022/01/09 01:04:41;;;;;;;2.10;1.60;;;;;;;;;;4975521;28;20224;-51
2022/01/09 01:07:07;;;;;;;1.70;1.60;;;;;;;;;;4975442;28;20408;-51
2022/01/09 01:09:33;;;;;;;1.75;1.40;;;;;;;;;;4975281;28;20260;-50
2022/01/09 01:11:59;;;;;;;1.52;1.42;;;;;;;;;;4974853;28;20193;-51
2022/01/09 01:14:27;;;;;;;1.45;1.35;;;;;;;;;;4975126;28;20185;-51
2022/01/09 01:16:54;;;;;;;1.50;1.40;;;;;;;;;;4975216;28;20665;-50
2022/01/09 01:19:19;;;;;;;2.03;1.50;;;;;;;;;;4974954;28;20177;-50
2022/01/09 01:21:45;;;;;;;1.20;1.20;;;;;;;;;;4974658;28;20209;-51
2022/01/09 01:24:12;;;;;;;1.58;1.48;;;;;;;;;;4975041;28;20431;-51
2022/01/09 01:26:38;;;;;;;1.60;1.50;;;;;;;;;;4975277;28;20259;-51
2022/01/09 01:29:04;;;;;;;1.25;1.15;;;;;;;;;;4975209;28;20220;-52
2022/01/09 01:31:30;;;;;;;1.65;1.55;;;;;;;;;;4974754;28;20231;-51
2022/01/09 01:33:56;;;;;;;1.30;1.20;;;;;;;;;;4975049;28;20169;-51
2022/01/09 01:36:22;;;;;;;1.42;1.33;;;;;;;;;;4973765;28;20653;-50
2022/01/09 01:38:48;;;;;;;1.30;1.20;;;;;;;;;;4975148;28;20179;-51
2022/01/09 01:41:14;;;;;;;1.20;1.10;;;;;;;;;;4974208;28;20809;-51
2022/01/09 01:43:40;;;;;;;1.30;1.20;;;;;;;;;;4974596;28;20177;-51
2022/01/09 01:46:06;;;;;;;1.27;1.17;;;;;;;;;;4974726;28;20484;-50
2022/01/09 01:48:32;;;;;;;1.20;1.10;;;;;;;;;;4974952;28;20416;-51
2022/01/09 01:50:58;;;;;;;1.03;1.00;;;;;;;;;;4974158;28;20409;-51
2022/01/09 01:53:24;;;;;;;1.40;1.30;;;;;;;;;;4974403;28;20413;-50
2022/01/09 01:55:55;;;;;;;1.15;1.10;;;;;;;;;;4974943;28;20190;-49
2022/01/09 01:58:22;;;;;;;1.60;1.50;;;;;;;;;;4977387;28;20165;-49
2022/01/09 02:00:48;;;;;;;1.20;1.10;;;;;;;;;;4974622;28;20220;-51
2022/01/09 02:03:14;;;;;;;1.47;1.37;;;;;;;;;;4974483;28;20658;-50
2022/01/09 02:05:41;;;;;;;1.35;1.25;;;;;;;;;;4974319;28;20890;-50
2022/01/09 02:08:08;;;;;;;1.20;1.10;;;;;;;;;;4975503;28;20166;-50
2022/01/09 02:10:34;;;;;;;1.10;1.10;;;;;;;;;;4974673;28;20568;-49
2022/01/09 02:13:00;;;;;;;1.27;1.17;;;;;;;;;;4975657;28;20666;-50
2022/01/09 02:15:34;;;;;;;1.50;1.40;;;;;;;;;;4975600;28;20179;-49
2022/01/09 02:18:02;;;;;;;1.10;1.10;;;;;;;;;;4974934;28;20406;-50
2022/01/09 02:20:27;;;;;;;1.30;1.30;;;;;;;;;;4975341;28;20607;-49
2022/01/09 02:22:55;;;;;;;1.30;1.20;;;;;;;;;;4975849;28;20192;-51
2022/01/09 02:25:21;;;;;;;1.35;1.25;;;;;;;;;;4975198;28;20436;-50
2022/01/09 02:27:47;;;;;;;1.30;1.20;;;;;;;;;;4976357;28;20174;-49
2022/01/09 02:30:13;;;;;;;1.42;1.33;;;;;;;;;;4975289;28;20165;-50
2022/01/09 02:32:39;;;;;;;1.45;1.35;;;;;;;;;;4974864;28;20232;-50
2022/01/09 02:35:05;;;;;;;1.50;1.40;;;;;;;;;;4974901;28;20196;-50
2022/01/09 02:37:31;;;;;;;1.30;1.20;;;;;;;;;;4973716;28;20173;-50
2022/01/09 02:39:57;;;;;;;3.43;1.37;;;;;;;;;;4973068;28;20208;-49
2022/01/09 02:42:26;;;;;;;1.40;1.30;;;;;;;;;;4973023;28;20433;-50
2022/01/09 02:44:52;;;;;;;1.40;1.30;;;;;;;;;;4973195;28;20169;-49
2022/01/09 02:47:19;;;;;;;1.42;1.33;;;;;;;;;;4972884;28;20169;-48
2022/01/09 02:49:49;;;;;;;1.40;1.30;;;;;;;;;;4972997;28;20217;-49
2022/01/09 02:52:34;;;;;;;1.50;1.40;;;;;;;;;;4972801;28;20207;-49
2022/01/09 02:55:10;;;;;;;1.80;1.50;;;;;;;;;;4973121;28;20165;-49
2022/01/09 02:57:37;;;;;;;1.50;1.40;;;;;;;;;;4973030;28;20157;-48
2022/01/09 03:00:03;;;;;;;1.65;1.55;;;;;;;;;;4972957;28;20697;-48
2022/01/09 03:02:29;;;;;;;1.52;1.42;;;;;;;;;;4972732;28;20190;-49
2022/01/09 03:04:55;;;;;;;1.37;1.10;;;;;;;;;;4973047;28;20565;-49
2022/01/09 03:07:21;;;;;;;1.57;1.47;;;;;;;;;;4972996;28;20746;-48
2022/01/09 03:09:47;;;;;;;1.70;1.60;;;;;;;;;;4972973;28;20767;-49
2022/01/09 03:12:13;;;;;;;5.83;2.00;;;;;;;;;;4972580;28;20421;-48
2022/01/09 03:14:39;;;;;;;2.03;1.93;;;;;;;;;;4972922;28;20408;-50
2022/01/09 03:17:05;;;;;;;3.33;3.10;;;;;;;;;;4972937;28;20405;-48
2022/01/09 03:19:31;;;;;;;2.43;2.27;;;;;;;;;;4972795;28;20417;-50
2022/01/09 03:21:56;;;;;;;2.50;2.33;;;;;;;;;;4972471;28;20465;-48
2022/01/09 03:24:22;;;;;;;3.07;2.60;;;;;;;;;;4972738;28;20421;-48
2022/01/09 03:26:48;;;;;;;2.40;2.20;;;;;;;;;;4972699;28;20408;-48
2022/01/09 03:29:14;;;;;;;3.33;2.80;;;;;;;;;;4972949;28;20397;-49
2022/01/09 03:31:40;;;;;;;4.37;3.10;;;;;;;;;;4972442;28;20425;-50
2022/01/09 03:34:06;;;;;;;3.70;3.00;;;;;;;;;;4972753;28;20495;-48
2022/01/09 03:36:33;;;;;;;4.43;3.47;;;;;;;;;;4972637;28;20416;-48
2022/01/09 03:38:59;;;;;;;4.30;3.90;;;;;;;;;;4972172;28;20498;-48
2022/01/09 03:41:26;;;;;;;4.50;4.10;;;;;;;;;;4972281;28;20232;-48
2022/01/09 03:43:52;;;;;;;4.65;4.18;;;;;;;;;;4972627;28;20921;-50
2022/01/09 03:46:18;;;;;;;4.63;3.73;;;;;;;;;;4972564;28;20204;-48
2022/01/09 03:48:44;;;;;;;3.53;3.23;;;;;;;;;;4972790;28;20400;-48
2022/01/09 03:51:11;;;;;;;5.03;3.60;;;;;;;;;;4972362;28;20464;-49
2022/01/09 03:53:37;;;;;;;4.32;2.88;;;;;;;;;;4972788;28;20924;-48
2022/01/09 03:56:03;;;;;;;3.40;3.08;;;;;;;;;;4972556;28;20237;-48
2022/01/09 03:58:29;;;;;;;2.83;2.63;;;;;;;;;;4972524;28;20656;-48
2022/01/09 04:00:55;;;;;;;3.08;2.60;;;;;;;;;;4974207;28;20776;-48
2022/01/09 04:03:21;;;;;;;1.87;1.77;;;;;;;;;;4976263;28;20257;-48
2022/01/09 04:05:47;;;;;;;2.83;2.57;;;;;;;;;;4975898;28;20412;-48
2022/01/09 04:08:13;;;;;;;2.60;2.40;;;;;;;;;;4975896;28;20472;-48
2022/01/09 04:10:41;;;;;;;3.25;2.20;;;;;;;;;;4975611;28;20165;-48
2022/01/09 04:13:08;;;;;;;8.55;2.45;;;;;;;;;;4975739;28;20355;-48
2022/01/09 04:15:34;;;;;;;2.42;2.17;;;;;;;;;;4975699;28;20542;-49
2022/01/09 04:18:01;;;;;;;2.47;2.27;;;;;;;;;;4975824;28;20174;-48
2022/01/09 04:20:31;;;;;;;7.95;2.30;;;;;;;;;;4975440;28;20904;-49
2022/01/09 04:22:58;;;;;;;1.77;1.67;;;;;;;;;;4975383;28;20190;-49
2022/01/09 04:25:24;;;;;;;3.25;1.80;;;;;;;;;;4975520;28;20208;-49
2022/01/09 04:27:51;;;;;;;3.28;1.80;;;;;;;;;;4975538;28;20196;-49
2022/01/09 04:30:17;;;;;;;4.82;2.45;;;;;;;;;;4975416;28;20246;-48
2022/01/09 04:32:44;;;;;;;2.05;1.50;;;;;;;;;;4975216;28;20333;-50
2022/01/09 04:35:10;;;;;;;5.35;2.67;;;;;;;;;;4975386;28;20165;-49
2022/01/09 04:37:37;;;;;;;4.88;1.95;;;;;;;;;;4975371;28;20539;-49
2022/01/09 04:40:04;;;;;;;5.70;3.13;;;;;;;;;;4975231;28;20193;-48
2022/01/09 04:42:45;;;;;;;6.57;2.13;;;;;;;;;;4974950;28;20687;-50
2022/01/09 04:45:13;;;;;;;6.38;2.33;;;;;;;;;;4975314;28;20642;-50
2022/01/09 04:47:43;;;;;;;4.40;2.40;;;;;;;;;;4975184;28;20641;-48
2022/01/09 04:50:13;;;;;;;10.48;3.70;;;;;;;;;;4975106;28;20166;-49
2022/01/09 04:52:40;;;;;;;10.52;4.07;;;;;;;;;;4975292;28;20268;-50
2022/01/09 04:55:06;;;;;;;7.30;4.10;;;;;;;;;;4974984;28;20174;-49
2022/01/09 04:57:32;;;;;;;12.48;3.60;;;;;;;;;;4975012;28;20594;-49
2022/01/09 04:59:58;;;;;;;9.20;3.90;;;;;;;;;;4974901;28;20244;-49
2022/01/09 05:02:24;;;;;;;14.40;3.30;;;;;;;;;;4974694;28;20941;-51
2022/01/09 05:04:50;;;;;;;11.43;3.83;;;;;;;;;;4975310;28;20409;-50
2022/01/09 05:07:16;;;;;;;12.25;3.42;;;;;;;;;;4974897;28;20170;-49
2022/01/09 05:09:42;;;;;;;15.10;3.40;;;;;;;;;;4974647;28;20229;-50
2022/01/09 05:12:08;;;;;;;13.63;4.00;;;;;;;;;;4974341;28;20778;-49
2022/01/09 05:14:34;;;;;;;14.80;3.95;;;;;;;;;;4974750;28;20889;-48
2022/01/09 05:17:00;;;;;;;31.07;5.60;;;;;;;;;;4974706;28;20220;-49
2022/01/09 05:19:32;;;;;;;17.70;5.50;;;;;;;;;;4974601;28;20440;-49
2022/01/09 05:21:58;;;;;;;27.02;5.57;;;;;;;;;;4974262;28;20608;-49
2022/01/09 05:24:24;;;;;;;15.03;5.07;;;;;;;;;;4974416;28;20710;-49
2022/01/09 05:26:50;;;;;;;32.05;6.43;;;;;;;;;;4974458;28;20405;-49
2022/01/09 05:29:16;;;;;;;17.93;5.80;;;;;;;;;;4974431;28;20173;-49
2022/01/09 05:31:44;;;;;;;23.40;5.40;;;;;;;;;;4974085;28;20429;-49
2022/01/09 05:34:10;;;;;;;21.13;6.25;;;;;;;;;;4974360;28;20166;-50
2022/01/09 05:36:36;;;;;;;22.70;5.40;;;;;;;;;;4974379;28;20276;-50
2022/01/09 05:39:02;;;;;;;38.90;7.10;;;;;;;;;;4974187;28;20693;-49
2022/01/09 05:41:28;;;;;;;23.58;5.80;;;;;;;;;;4973786;28;20604;-50
2022/01/09 05:43:54;;;;;;;20.60;5.10;;;;;;;;;;4974208;28;20170;-49
2022/01/09 05:46:20;;;;;;;14.23;5.10;;;;;;;;;;4974110;28;20229;-50
2022/01/09 05:48:46;;;;;;;26.97;4.57;;;;;;;;;;4974015;28;20401;-49
2022/01/09 05:51:12;;;;;;;18.17;5.10;;;;;;;;;;4973674;28;20432;-49
2022/01/09 05:53:38;;;;;;;20.73;4.50;;;;;;;;;;4973875;28;20500;-48
2022/01/09 05:56:04;;;;;;;22.13;4.23;;;;;;;;;;4973948;28;20472;-50
2022/01/09 05:58:31;;;;;;;19.67;6.10;;;;;;;;;;4973899;28;20469;-49
2022/01/09 06:00:57;;;;;;;15.02;5.75;;;;;;;;;;4973414;28;20220;-49
2022/01/09 06:03:23;;;;;;;22.03;6.40;;;;;;;;;;4974510;28;20165;-49
2022/01/09 06:05:49;;;;;;;22.52;6.88;;;;;;;;;;4973701;28;20408;-49
2022/01/09 06:08:15;;;;;;;23.48;7.75;;;;;;;;;;4973670;28;20544;-50
2022/01/09 06:10:41;;;;;;;30.20;7.40;;;;;;;;;;4973409;28;20173;-49
2022/01/09 06:13:07;;;;;;;30.70;8.47;;;;;;;;;;4973530;28;20964;-49
2022/01/09 06:15:32;;;;;;;29.23;7.80;;;;;;;;;;4973633;28;20401;-49
2022/01/09 06:17:58;;;;;;;35.43;9.03;;;;;;;;;;4973567;28;20405;-50
2022/01/09 06:20:24;;;;;;;14.53;7.33;;;;;;;;;;4973463;28;20572;-49
2022/01/09 06:22:50;;;;;;;31.83;8.23;;;;;;;;;;4972704;28;20473;-48
2022/01/09 06:25:16;;;;;;;16.57;7.13;;;;;;;;;;4973422;28;20420;-49
2022/01/09 06:27:42;;;;;;;23.83;7.37;;;;;;;;;;4973692;28;20401;-49
2022/01/09 06:30:11;;;;;;;17.73;6.87;;;;;;;;;;4973673;28;20393;-49
2022/01/09 06:32:37;;;;;;;34.65;8.05;;;;;;;;;;4973013;28;20412;-50
2022/01/09 06:35:04;;;;;;;19.35;7.15;;;;;;;;;;4973330;28;20241;-49
2022/01/09 06:37:30;;;;;;;18.33;6.70;;;;;;;;;;4973399;28;20162;-50
2022/01/09 06:39:56;;;;;;;27.98;7.18;;;;;;;;;;4973512;28;20208;-50
2022/01/09 06:42:22;;;;;;;18.90;7.47;;;;;;;;;;4973229;28;20209;-49
2022/01/09 06:44:48;;;;;;;17.50;7.53;;;;;;;;;;4973846;28;20398;-49
2022/01/09 06:47:14;;;;;;;13.83;6.00;;;;;;;;;;4973512;28;20236;-50
2022/01/09 06:49:40;;;;;;;20.67;7.50;;;;;;;;;;4973434;28;20402;-50
2022/01/09 06:52:06;;;;;;;27.93;8.70;;;;;;;;;;4973207;28;20429;-50
2022/01/09 06:54:32;;;;;;;29.13;7.82;;;;;;;;;;4973705;28;20781;-50
2022/01/09 06:56:58;;;;;;;22.07;6.97;;;;;;;;;;4973793;28;20176;-50
2022/01/09 06:59:24;;;;;;;15.60;6.32;;;;;;;;;;4973704;28;20522;-50
2022/01/09 07:01:50;;;;;;;18.30;6.03;;;;;;;;;;4973511;28;20206;-50
2022/01/09 07:04:16;;;;;;;18.52;8.00;;;;;;;;;;4973973;28;20491;-50
2022/01/09 07:06:42;;;;;;;22.00;6.90;;;;;;;;;;4974489;28;20205;-50
2022/01/09 07:09:08;;;;;;;21.80;7.20;;;;;;;;;;4974160;28;20412;-51
2022/01/09 07:11:34;;;;;;;17.77;6.25;;;;;;;;;;4974447;28;20437;-50
2022/01/09 07:14:01;;;;;;;12.77;6.40;;;;;;;;;;4974712;28;20189;-51
2022/01/09 07:16:27;;;;;;;15.57;6.20;;;;;;;;;;4974472;28;20166;-50
2022/01/09 07:18:53;;;;;;;13.75;6.28;;;;;;;;;;4974937;28;20171;-50
2022/01/09 07:21:19;;;;;;;16.40;4.70;;;;;;;;;;4973056;28;20306;-51
2022/01/09 07:23:44;;;;;;;8.45;4.88;;;;;;;;;;4974787;28;20473;-51
2022/01/09 07:26:10;;;;;;;13.83;4.50;;;;;;;;;;4975045;28;20170;-51
2022/01/09 07:28:36;;;;;;;14.73;4.43;;;;;;;;;;4975180;28;20503;-50
2022/01/09 07:31:02;;;;;;;27.37;4.93;;;;;;;;;;4975215;28;20405;-51
2022/01/09 07:33:30;;;;;;;21.67;4.90;;;;;;;;;;4975392;28;20548;-51
2022/01/09 07:35:56;;;;;;;14.75;5.07;;;;;;;;;;4978529;28;20909;-50
2022/01/09 07:38:22;;;;;;;15.20;5.40;;;;;;;;;;4980406;28;20546;-51
2022/01/09 07:40:49;;;;;;;16.63;4.70;;;;;;;;;;4980897;28;20637;-51
2022/01/09 07:43:15;;;;;;;12.05;4.97;;;;;;;;;;4980887;28;20273;-51
2022/01/09 07:45:41;;;;;;;36.90;5.43;;;;;;;;;;4980713;28;20197;-51
2022/01/09 07:48:07;;;;;;;16.05;5.18;;;;;;;;;;4980698;28;20768;-51
2022/01/09 07:50:33;;;;;;;17.53;5.30;;;;;;;;;;4981910;28;20170;-51
2022/01/09 07:52:59;;;;;;;11.98;5.35;;;;;;;;;;4981318;28;20762;-51
2022/01/09 07:55:25;;;;;;;17.65;5.60;;;;;;;;;;4981666;28;20170;-51
2022/01/09 07:57:51;;;;;;;16.13;5.77;;;;;;;;;;4981148;28;20652;-51
2022/01/09 08:00:18;;;;;;;18.52;5.50;;;;;;;;;;4981054;28;20530;-51
2022/01/09 08:02:44;;;;;;;12.35;5.00;;;;;;;;;;4981122;28;20261;-51
2022/01/09 08:05:11;;;;;;;13.18;5.18;;;;;;;;;;4980345;28;20176;-51
2022/01/09 08:07:37;;;;;;;12.65;5.50;;;;;;;;;;4980854;28;20166;-51
2022/01/09 08:10:03;;;;;;;6.18;5.00;;;;;;;;;;4980241;28;20174;-51
2022/01/09 08:12:29;;;;;;;26.52;6.07;;;;;;;;;;4980809;28;20192;-51
2022/01/09 08:14:55;;;;;;;14.90;5.23;;;;;;;;;;4980435;28;20174;-51
2022/01/09 08:17:21;;;;;;;16.63;5.50;;;;;;;;;;4979780;28;20464;-51
2022/01/09 08:19:48;;;;;;;24.77;4.93;;;;;;;;;;4979589;28;20409;-51
2022/01/09 08:22:14;;;;;;;9.52;4.60;;;;;;;;;;4979215;28;20210;-51
2022/01/09 08:24:40;;;;;;;13.70;5.47;;;;;;;;;;4978680;28;20573;-51
2022/01/09 08:27:07;;;;;;;6.25;3.40;;;;;;;;;;4978688;28;20916;-51
2022/01/09 08:29:33;;;;;;;15.95;4.10;;;;;;;;;;4978404;28;20185;-51
2022/01/09 08:31:59;;;;;;;9.75;4.90;;;;;;;;;;4978473;28;20201;-51
2022/01/09 08:34:25;;;;;;;11.90;4.87;;;;;;;;;;4977885;28;20174;-51
2022/01/09 08:36:50;;;;;;;9.23;4.50;;;;;;;;;;4978572;28;20917;-51
2022/01/09 08:39:17;;;;;;;11.63;4.27;;;;;;;;;;4977828;28;20838;-51
2022/01/09 08:41:43;;;;;;;14.50;4.40;;;;;;;;;;4977708;28;20464;-51
2022/01/09 08:44:09;;;;;;;11.03;4.33;;;;;;;;;;4978069;28;20531;-51
2022/01/09 08:46:36;;;;;;;9.68;4.63;;;;;;;;;;4976347;28;20936;-51
2022/01/09 08:49:03;;;;;;;9.60;3.90;;;;;;;;;;4978812;28;20212;-51
2022/01/09 08:51:29;;;;;;;16.90;4.47;;;;;;;;;;4977990;28;20198;-51
2022/01/09 08:53:56;;;;;;;12.05;5.20;;;;;;;;;;4977594;28;20170;-52
2022/01/09 08:56:23;;;;;;;16.30;5.88;;;;;;;;;;4977578;28;20178;-51
2022/01/09 08:58:49;;;;;;;13.25;4.38;;;;;;;;;;4976803;28;20260;-51
2022/01/09 09:01:15;;;;;;;23.25;5.13;;;;;;;;;;4976210;28;20284;-51
2022/01/09 09:03:41;;;;;;;15.32;4.88;;;;;;;;;;4976002;28;20170;-51
2022/01/09 09:06:15;;;;;;;16.33;5.55;;;;;;;;;;4976026;28;20170;-52
2022/01/09 09:08:41;;;;;;;12.07;4.75;;;;;;;;;;4975945;28;20177;-51
2022/01/09 09:11:08;;;;;;;12.93;5.05;;;;;;;;;;4975556;28;20165;-51
2022/01/09 09:13:34;;;;;;;15.18;4.30;;;;;;;;;;4975578;28;20257;-51
2022/01/09 09:16:00;;;;;;;11.45;3.72;;;;;;;;;;4975524;28;20205;-51
2022/01/09 09:18:26;;;;;;;10.73;4.03;;;;;;;;;;4975079;28;20684;-51
2022/01/09 09:20:52;;;;;;;7.95;4.07;;;;;;;;;;4974660;28;20499;-51
2022/01/09 09:23:18;;;;;;;10.90;3.88;;;;;;;;;;4974744;28;20177;-51
2022/01/09 09:25:44;;;;;;;8.68;4.05;;;;;;;;;;4975109;28;20725;-51
2022/01/09 09:28:10;;;;;;;9.97;4.33;;;;;;;;;;4975116;28;20193;-51
2022/01/09 09:30:37;;;;;;;16.45;4.35;;;;;;;;;;4974507;28;20772;-51
2022/01/09 09:33:05;;;;;;;12.95;4.57;;;;;;;;;;4974641;28;20197;-51
2022/01/09 09:35:31;;;;;;;13.20;4.50;;;;;;;;;;4974656;28;20166;-51
2022/01/09 09:37:57;;;;;;;9.65;4.57;;;;;;;;;;4974580;28;20645;-51
2022/01/09 09:40:23;;;;;;;13.00;4.70;;;;;;;;;;4974370;28;20284;-51
2022/01/09 09:42:49;;;;;;;18.45;3.78;;;;;;;;;;4974100;28;20409;-51
2022/01/09 09:45:15;;;;;;;10.77;3.90;;;;;;;;;;4974505;28;20188;-51
2022/01/09 09:47:41;;;;;;;10.68;4.25;;;;;;;;;;4974154;28;20405;-51
2022/01/09 09:50:10;;;;;;;14.45;6.03;;;;;;;;;;4974219;28;20176;-51
2022/01/09 09:52:36;;;;;;;11.73;4.47;;;;;;;;;;4973996;28;20191;-51
2022/01/09 09:55:04;;;;;;;10.98;4.60;;;;;;;;;;4973977;28;20208;-51
2022/01/09 09:57:29;;;;;;;4.88;4.35;;;;;;;;;;4973100;28;20181;-51
2022/01/09 10:00:05;;;;;;;20.90;4.73;;;;;;;;;;4973996;28;20803;-51
2022/01/09 10:02:40;;;;;;;16.92;5.30;;;;;;;;;;4973663;28;20434;-51
2022/01/09 10:05:06;;;;;;;10.30;4.90;;;;;;;;;;4973971;28;20169;-51
2022/01/09 10:07:33;;;;;;;8.32;4.97;;;;;;;;;;4973842;28;20184;-51
2022/01/09 10:10:00;;;;;;;20.15;6.55;;;;;;;;;;4973798;28;20661;-51
2022/01/09 10:12:28;;;;;;;9.45;4.50;;;;;;;;;;4973425;28;20198;-51
2022/01/09 10:14:55;;;;;;;16.20;4.97;;;;;;;;;;4973830;28;20181;-51
2022/01/09 10:17:21;;;;;;;8.75;4.50;;;;;;;;;;4973699;28;20177;-51
2022/01/09 10:19:50;;;;;;;14.40;6.00;;;;;;;;;;4973643;28;20224;-52
2022/01/09 10:22:22;;;;;;;11.63;5.03;;;;;;;;;;4973210;28;20460;-51
2022/01/09 10:24:48;;;;;;;12.47;4.80;;;;;;;;;;4973970;28;20425;-52
2022/01/09 10:27:26;;;;;;;10.67;4.60;;;;;;;;;;4974163;28;20832;-51
2022/01/09 10:29:53;;;;;;;6.97;4.23;;;;;;;;;;4974128;28;20394;-52
2022/01/09 10:32:20;;;;;;;10.90;4.00;;;;;;;;;;4974278;28;20444;-51
2022/01/09 10:35:03;;;;;;;5.73;4.10;;;;;;;;;;4974453;28;20412;-52
2022/01/09 10:37:29;;;;;;;8.03;5.53;;;;;;;;;;4974455;28;20411;-52
2022/01/09 10:39:58;;;;;;;8.60;4.77;;;;;;;;;;4974703;28;20416;-51
2022/01/09 10:42:24;;;;;;;9.67;5.80;;;;;;;;;;4974362;28;20470;-51
2022/01/09 10:44:50;;;;;;;11.50;5.37;;;;;;;;;;4975077;28;20407;-51
2022/01/09 10:47:16;;;;;;;10.43;5.30;;;;;;;;;;4974575;28;20403;-51
2022/01/09 10:49:49;;;;;;;6.83;5.23;;;;;;;;;;4974699;28;20424;-51
2022/01/09 10:52:20;;;;;;;8.43;5.40;;;;;;;;;;4974397;28;20421;-51
2022/01/09 10:54:47;;;;;;;15.13;6.17;;;;;;;;;;4973904;28;20920;-51
2022/01/09 10:57:17;;;;;;;10.10;5.60;;;;;;;;;;4974193;28;20504;-51
2022/01/09 10:59:43;;;;;;;8.20;5.40;;;;;;;;;;4973674;28;20973;-51
2022/01/09 11:02:13;;;;;;;8.97;5.10;;;;;;;;;;4973079;28;20548;-51
2022/01/09 11:04:43;;;;;;;8.67;4.83;;;;;;;;;;4973803;28;20405;-52
2022/01/09 11:07:09;;;;;;;12.00;5.73;;;;;;;;;;4974387;28;20507;-51
2022/01/09 11:09:36;;;;;;;7.87;5.57;;;;;;;;;;4976225;28;20401;-51
2022/01/09 11:12:03;;;;;;;19.17;5.88;;;;;;;;;;4978384;28;20519;-51
2022/01/09 11:14:34;;;;;;;14.67;5.90;;;;;;;;;;4976984;28;20213;-51
2022/01/09 11:17:03;;;;;;;11.33;6.37;;;;;;;;;;4978069;28;20390;-52
2022/01/09 11:19:29;;;;;;;14.73;5.97;;;;;;;;;;4989757;28;20425;-51
2022/01/09 11:21:59;;;;;;;11.93;6.30;;;;;;;;;;4997585;28;20460;-52
2022/01/09 11:24:25;;;;;;;9.93;6.10;;;;;;;;;;4997732;28;20420;-51
2022/01/09 11:26:51;;;;;;;9.10;5.57;;;;;;;;;;4997979;28;20662;-51
2022/01/09 11:29:20;;;;;;;15.82;6.72;;;;;;;;;;4997420;28;20788;-51
2022/01/09 11:32:00;;;;;;;10.93;5.80;;;;;;;;;;4997552;28;20193;-51
2022/01/09 11:34:31;;;;;;;7.28;5.10;;;;;;;;;;4997757;28;20411;-51
2022/01/09 11:37:12;;;;;;;9.10;5.63;;;;;;;;;;4997468;28;20173;-51
2022/01/09 11:39:38;;;;;;;10.30;5.35;;;;;;;;;;4997338;28;20172;-51
2022/01/09 11:42:05;;;;;;;9.37;5.43;;;;;;;;;;4996946;28;20690;-51
2022/01/09 11:44:32;;;;;;;11.07;6.20;;;;;;;;;;4997319;28;20408;-52
2022/01/09 11:46:58;;;;;;;12.80;6.03;;;;;;;;;;4996962;28;20401;-51
2022/01/09 11:49:24;;;;;;;15.33;6.27;;;;;;;;;;4997030;28;20168;-51
2022/01/09 11:51:57;;;;;;;11.53;6.10;;;;;;;;;;4996342;28;20503;-51
2022/01/09 11:54:24;;;;;;;10.87;6.33;;;;;;;;;;4996956;28;20402;-52
2022/01/09 11:56:57;;;;;;;9.70;6.40;;;;;;;;;;4996802;28;20396;-52
2022/01/09 11:59:34;;;;;;;9.40;5.03;;;;;;;;;;4996446;28;20408;-51
2022/01/09 12:02:04;;;;;;;10.63;6.47;;;;;;;;;;4996949;28;20464;-51
2022/01/09 12:04:33;;;;;;;16.55;5.75;;;;;;;;;;4996756;28;20401;-51
2022/01/09 12:06:59;;;;;;;13.47;6.13;;;;;;;;;;4997268;28;20166;-52
2022/01/09 12:09:32;;;;;;;15.70;7.27;;;;;;;;;;4996784;28;20405;-54
2022/01/09 12:12:05;;;;;;;14.93;7.07;;;;;;;;;;4996460;28;20939;-51
2022/01/09 12:15:03;;;;;;;15.07;6.10;;;;;;;;;;4997473;28;20410;-52
2022/01/09 12:17:36;;;;;;;9.70;6.33;;;;;;;;;;4996958;28;20983;-51
2022/01/09 12:20:08;;;;;;;11.13;5.80;;;;;;;;;;4996701;28;20424;-52
2022/01/09 12:22:40;;;;;;;8.38;7.47;;;;;;;;;;4996024;28;20441;-52
2022/01/09 12:25:24;;;;;;;14.73;6.33;;;;;;;;;;4995778;28;20673;-50
2022/01/09 12:27:54;;;;;;;9.00;5.40;;;;;;;;;;4994792;28;20396;-50
2022/01/09 12:30:33;;;;;;;9.50;5.97;;;;;;;;;;4994732;28;20409;-50
2022/01/09 12:33:08;;;;;;;11.18;5.10;;;;;;;;;;4994572;28;20431;-50
2022/01/09 12:35:34;;;;;;;7.68;4.68;;;;;;;;;;4993838;28;20253;-50
2022/01/09 12:38:00;;;;;;;9.17;4.70;;;;;;;;;;4994268;28;20660;-50
2022/01/09 12:40:27;;;;;;;8.35;4.80;;;;;;;;;;4994484;28;20397;-50
2022/01/09 12:42:54;;;;;;;6.80;4.50;;;;;;;;;;4994381;28;20562;-50
2022/01/09 12:45:21;;;;;;;8.60;5.17;;;;;;;;;;4994529;28;20400;-50
2022/01/09 12:47:47;;;;;;;10.05;5.25;;;;;;;;;;4994452;28;20662;-50
2022/01/09 12:50:13;;;;;;;9.00;4.83;;;;;;;;;;4994352;28;20339;-50
2022/01/09 12:52:39;;;;;;;13.10;5.50;;;;;;;;;;4993169;28;20431;-49
2022/01/09 12:55:06;;;;;;;10.53;4.37;;;;;;;;;;4994411;28;20412;-50
2022/01/09 12:57:51;;;;;;;11.50;5.43;;;;;;;;;;4994533;28;20412;-50
2022/01/09 13:00:17;;;;;;;6.25;4.68;;;;;;;;;;4994245;28;20400;-50
2022/01/09 13:02:56;;;;;;;7.30;4.90;;;;;;;;;;4993978;28;20208;-50
2022/01/09 13:05:26;;;;;;;8.17;4.80;;;;;;;;;;4994319;28;20429;-50
2022/01/09 13:07:56;;;;;;;9.07;4.40;;;;;;;;;;4994189;28;20403;-50
2022/01/09 13:10:27;;;;;;;8.37;4.67;;;;;;;;;;4994034;28;20831;-51
2022/01/09 13:13:20;;;;;;;15.40;5.77;;;;;;;;;;4993856;28;20424;-51
2022/01/09 13:15:45;;;;;;;7.87;4.47;;;;;;;;;;4992091;28;20899;-52
2022/01/09 13:18:11;;;;;;;9.17;5.03;;;;;;;;;;4994010;28;20407;-50
2022/01/09 13:20:37;;;;;;;6.83;5.07;;;;;;;;;;4993683;28;20461;-50
2022/01/09 13:23:07;;;;;;;16.70;5.10;;;;;;;;;;4993801;28;20422;-50
2022/01/09 13:25:43;;;;;;;10.03;4.30;;;;;;;;;;4993584;28;20866;-50
2022/01/09 13:28:23;;;;;;;6.80;4.47;;;;;;;;;;4993836;28;20413;-50
2022/01/09 13:30:49;;;;;;;10.60;5.33;;;;;;;;;;4993442;28;20950;-50
2022/01/09 13:33:15;;;;;;;10.87;4.90;;;;;;;;;;4993502;28;20517;-50
2022/01/09 13:35:41;;;;;;;6.67;5.23;;;;;;;;;;4993555;28;20418;-50
2022/01/09 13:38:08;;;;;;;7.63;5.30;;;;;;;;;;4993414;28;20417;-50
2022/01/09 13:40:34;;;;;;;14.73;5.27;;;;;;;;;;4993353;28;20458;-50
2022/01/09 13:43:01;;;;;;;15.50;5.20;;;;;;;;;;4995271;28;20441;-50
2022/01/09 13:45:27;;;;;;;13.00;5.90;;;;;;;;;;4993348;28;20472;-50
2022/01/09 13:47:56;;;;;;;6.30;5.07;;;;;;;;;;4993461;28;20927;-50
2022/01/09 13:50:22;;;;;;;9.40;5.70;;;;;;;;;;4991849;28;20402;-51
2022/01/09 13:52:48;;;;;;;9.17;5.40;;;;;;;;;;4992819;28;20447;-50
2022/01/09 13:55:15;;;;;;;6.37;5.60;;;;;;;;;;4993237;28;20468;-50
2022/01/09 13:58:01;;;;;;;7.97;6.37;;;;;;;;;;4993233;28;20407;-50
2022/01/09 14:00:27;;;;;;;10.20;5.30;;;;;;;;;;4992980;28;20472;-50
2022/01/09 14:02:54;;;;;;;9.67;5.50;;;;;;;;;;4992755;28;20428;-51
2022/01/09 14:05:21;;;;;;;14.52;6.18;;;;;;;;;;4991150;28;20408;-50
2022/01/09 14:07:47;;;;;;;13.17;6.00;;;;;;;;;;4991646;28;20708;-51
2022/01/09 14:10:13;;;;;;;9.60;5.80;;;;;;;;;;4991273;28;20436;-50
2022/01/09 14:12:39;;;;;;;15.83;6.57;;;;;;;;;;4992437;28;20428;-51
2022/01/09 14:15:16;;;;;;;14.23;6.17;;;;;;;;;;4992913;28;20408;-50
2022/01/09 14:17:49;;;;;;;12.48;5.85;;;;;;;;;;4992766;28;20794;-51
2022/01/09 14:20:22;;;;;;;8.80;5.80;;;;;;;;;;4992663;28;20172;-50
2022/01/09 14:22:53;;;;;;;13.25;6.18;;;;;;;;;;4992541;28;20185;-50
2022/01/09 14:25:26;;;;;;;8.35;6.03;;;;;;;;;;4992676;28;20192;-50
2022/01/09 14:27:53;;;;;;;10.50;5.90;;;;;;;;;;4993081;28;20248;-52
2022/01/09 14:30:45;;;;;;;9.13;5.63;;;;;;;;;;4992463;28;20173;-50
2022/01/09 14:33:12;;;;;;;7.43;5.50;;;;;;;;;;4989890;28;20223;-50
2022/01/09 14:35:41;;;;;;;12.38;4.95;;;;;;;;;;4992676;28;20165;-50
2022/01/09 14:38:09;;;;;;;9.10;5.35;;;;;;;;;;4992673;28;20183;-51